MSC Azov — 9HA3457 — position and weather

sailwx.info

Track history (hours):
 
Tides and Currents Weather Stations Pressure Air Temp Water Temp Dewpoint Dewpoint Depression Visibility Wind Speed Wind Dir Waves Ship Positions

MSC Azov

Last reported at 2018-Feb-15 08:07 UTC. Time now 2018-Feb-21 01:53 UTC.
Position S 24°07' W 046°23'.

Length 300 m; draft 9.4 m.

Type: Ship (hazmat cat A). MMSI: 229620000.

Date/timePositionNaut miles runAvg speedWind from/ knotsBaromVisibWave heightAir tempDewpointWater temp
2018-Feb-15 08:07S 24°07' W 046°23'415.0
2018-Feb-15 07:53S 24°04' W 046°22'4 9.8
2018-Feb-15 07:30S 24°00' W 046°20'3 5.4
2018-Feb-15 07:00S 23°59' W 046°18'4 7.6
2018-Feb-15 06:30S 23°56' W 046°19'2 3.6
2018-Feb-15 06:00S 23°55' W 046°21'0 0.0
2018-Feb-15 05:26S 23°55' W 046°21'0 0.0
2018-Feb-15 05:00S 23°55' W 046°21'0 0.0
2018-Feb-15 04:31S 23°55' W 046°21'0 0.0
2018-Feb-15 03:55S 23°55' W 046°21'0 0.0
2018-Feb-15 03:25S 23°55' W 046°21'0 0.0
2018-Feb-15 02:45S 23°55' W 046°21'0 0.0
2018-Feb-15 02:05S 23°55' W 046°21'0 0.0
2018-Feb-15 01:54S 23°55' W 046°21'0 0.0
2018-Feb-15 01:28S 23°55' W 046°21'0 0.0
2018-Feb-15 00:08S 23°55' W 046°21'0 0.1
2018-Feb-14 23:58S 23°55' W 046°21'0 0.0
2018-Feb-14 23:29S 23°55' W 046°21'0 0.0
2018-Feb-14 22:57S 23°55' W 046°21'0 0.0
2018-Feb-14 21:04S 23°55' W 046°21'0 0.2
2018-Feb-14 20:58S 23°55' W 046°21'0 0.0
2018-Feb-14 20:22S 23°55' W 046°21'0 0.0
2018-Feb-14 19:58S 23°55' W 046°21'0 0.0
2018-Feb-14 19:25S 23°55' W 046°21'0 0.0
2018-Feb-14 18:59S 23°55' W 046°21'0 0.0
2018-Feb-14 18:26S 23°55' W 046°21'0 0.0
2018-Feb-14 17:59S 23°55' W 046°21'0 0.0
2018-Feb-14 14:56S 23°55' W 046°21'0 0.0
2018-Feb-14 14:30S 23°55' W 046°21'0 0.0
2018-Feb-14 13:51S 23°55' W 046°21'0 0.0
2018-Feb-14 12:23S 23°55' W 046°21'0 0.0
2018-Feb-14 11:46S 23°55' W 046°21'0 0.0
2018-Feb-14 11:30S 23°55' W 046°21'0 0.8
2018-Feb-14 11:00S 23°55' W 046°21'3 6.3
2018-Feb-14 10:30S 23°58' W 046°18'3 5.1
2018-Feb-14 10:00S 23°60' W 046°20'510.2
2018-Feb-14 09:30S 24°04' W 046°22'0 0.9
2018-Feb-14 09:01S 24°04' W 046°23'1 2.7
2018-Feb-14 08:31S 24°05' W 046°23'612.1
2018-Feb-14 08:00S 24°12' W 046°22'14714.6
2018-Feb-13 21:55S 23°24' W 043°49'715.4
2018-Feb-13 21:26S 23°21' W 043°42'715.4
2018-Feb-13 21:00S 23°18' W 043°36'815.4
2018-Feb-13 20:29S 23°15' W 043°28'715.1
2018-Feb-13 20:00S 23°11' W 043°21'714.8
2018-Feb-13 19:30S 23°07' W 043°14'712.8
2018-Feb-13 18:59S 23°02' W 043°10'713.5
2018-Feb-13 18:30S 22°56' W 043°08'4 8.7
2018-Feb-13 18:01S 22°53' W 043°12'1 1.1
2018-Feb-13 17:30S 22°53' W 043°13'0 0.0
2018-Feb-13 16:58S 22°53' W 043°13'0 0.0
2018-Feb-13 16:28S 22°53' W 043°13'0 0.0
2018-Feb-13 16:00S 22°53' W 043°13'0 0.0
2018-Feb-13 15:30S 22°53' W 043°13'0 0.0
2018-Feb-13 14:56S 22°53' W 043°13'0 0.0
2018-Feb-13 14:29S 22°53' W 043°13'0 0.0
2018-Feb-13 14:00S 22°53' W 043°13'0 0.0
2018-Feb-13 13:30S 22°53' W 043°12'0 0.0
2018-Feb-13 13:00S 22°53' W 043°12'0 0.0
2018-Feb-13 12:25S 22°53' W 043°13'0 0.0
2018-Feb-13 11:58S 22°53' W 043°12'0 0.0
2018-Feb-13 11:28S 22°53' W 043°13'0 0.0
2018-Feb-13 10:58S 22°53' W 043°13'0 0.0
2018-Feb-13 10:28S 22°53' W 043°13'0 0.0
2018-Feb-13 09:58S 22°53' W 043°13'0 0.1
2018-Feb-13 09:30S 22°53' W 043°12'1 2.6
2018-Feb-13 09:00S 22°53' W 043°11'4 8.3
2018-Feb-13 08:30S 22°56' W 043°08'4 8.2
2018-Feb-13 08:00S 23°00' W 043°06'611.6
2018-Feb-13 07:30S 23°02' W 043°00'612.5
2018-Feb-13 07:00S 23°04' W 042°54'714.5
2018-Feb-13 06:30S 23°06' W 042°46'916.6
2018-Feb-13 05:57S 23°06' W 042°36'817.4
2018-Feb-13 05:30S 23°07' W 042°28'917.3
2018-Feb-13 05:00S 23°07' W 042°19'1417.1
2018-Feb-13 04:11S 23°06' W 042°03'717.2
2018-Feb-13 03:46S 23°06' W 041°56'  
Track history (hours):
 
Tides and Currents Weather Stations Pressure Air Temp Water Temp Dewpoint Dewpoint Depression Visibility Wind Speed Wind Dir Waves Ship Positions

MSC Azov

Last reported at 2018-Feb-15 08:07 UTC. Time now 2018-Feb-21 01:53 UTC.
Position S 24°07' W 046°23'.

Length 300 m; draft 9.4 m.

Type: Ship (hazmat cat A). MMSI: 229620000.

Date/timePositionNaut miles runAvg speedWind from/ knotsBaromVisibWave heightAir tempDewpointWater temp
2018-Feb-15 08:07S 24°07' W 046°23'415.0
2018-Feb-15 07:53S 24°04' W 046°22'4 9.8
2018-Feb-15 07:30S 24°00' W 046°20'3 5.4
2018-Feb-15 07:00S 23°59' W 046°18'4 7.6
2018-Feb-15 06:30S 23°56' W 046°19'2 3.6
2018-Feb-15 06:00S 23°55' W 046°21'0 0.0
2018-Feb-15 05:26S 23°55' W 046°21'0 0.0
2018-Feb-15 05:00S 23°55' W 046°21'0 0.0
2018-Feb-15 04:31S 23°55' W 046°21'0 0.0
2018-Feb-15 03:55S 23°55' W 046°21'0 0.0
2018-Feb-15 03:25S 23°55' W 046°21'0 0.0
2018-Feb-15 02:45S 23°55' W 046°21'0 0.0
2018-Feb-15 02:05S 23°55' W 046°21'0 0.0
2018-Feb-15 01:54S 23°55' W 046°21'0 0.0
2018-Feb-15 01:28S 23°55' W 046°21'0 0.0
2018-Feb-15 00:08S 23°55' W 046°21'0 0.1
2018-Feb-14 23:58S 23°55' W 046°21'0 0.0
2018-Feb-14 23:29S 23°55' W 046°21'0 0.0
2018-Feb-14 22:57S 23°55' W 046°21'0 0.0
2018-Feb-14 21:04S 23°55' W 046°21'0 0.2
2018-Feb-14 20:58S 23°55' W 046°21'0 0.0
2018-Feb-14 20:22S 23°55' W 046°21'0 0.0
2018-Feb-14 19:58S 23°55' W 046°21'0 0.0
2018-Feb-14 19:25S 23°55' W 046°21'0 0.0
2018-Feb-14 18:59S 23°55' W 046°21'0 0.0
2018-Feb-14 18:26S 23°55' W 046°21'0 0.0
2018-Feb-14 17:59S 23°55' W 046°21'0 0.0
2018-Feb-14 14:56S 23°55' W 046°21'0 0.0
2018-Feb-14 14:30S 23°55' W 046°21'0 0.0
2018-Feb-14 13:51S 23°55' W 046°21'0 0.0
2018-Feb-14 12:23S 23°55' W 046°21'0 0.0
2018-Feb-14 11:46S 23°55' W 046°21'0 0.0
2018-Feb-14 11:30S 23°55' W 046°21'0 0.8
2018-Feb-14 11:00S 23°55' W 046°21'3 6.3
2018-Feb-14 10:30S 23°58' W 046°18'3 5.1
2018-Feb-14 10:00S 23°60' W 046°20'510.2
2018-Feb-14 09:30S 24°04' W 046°22'0 0.9
2018-Feb-14 09:01S 24°04' W 046°23'1 2.7
2018-Feb-14 08:31S 24°05' W 046°23'612.1
2018-Feb-14 08:00S 24°12' W 046°22'14714.6
2018-Feb-13 21:55S 23°24' W 043°49'715.4
2018-Feb-13 21:26S 23°21' W 043°42'715.4
2018-Feb-13 21:00S 23°18' W 043°36'815.4
2018-Feb-13 20:29S 23°15' W 043°28'715.1
2018-Feb-13 20:00S 23°11' W 043°21'714.8
2018-Feb-13 19:30S 23°07' W 043°14'712.8
2018-Feb-13 18:59S 23°02' W 043°10'713.5
2018-Feb-13 18:30S 22°56' W 043°08'4 8.7
2018-Feb-13 18:01S 22°53' W 043°12'1 1.1
2018-Feb-13 17:30S 22°53' W 043°13'0 0.0
2018-Feb-13 16:58S 22°53' W 043°13'0 0.0
2018-Feb-13 16:28S 22°53' W 043°13'0 0.0
2018-Feb-13 16:00S 22°53' W 043°13'0 0.0
2018-Feb-13 15:30S 22°53' W 043°13'0 0.0
2018-Feb-13 14:56S 22°53' W 043°13'0 0.0
2018-Feb-13 14:29S 22°53' W 043°13'0 0.0
2018-Feb-13 14:00S 22°53' W 043°13'0 0.0
2018-Feb-13 13:30S 22°53' W 043°12'0 0.0
2018-Feb-13 13:00S 22°53' W 043°12'0 0.0
2018-Feb-13 12:25S 22°53' W 043°13'0 0.0
2018-Feb-13 11:58S 22°53' W 043°12'0 0.0
2018-Feb-13 11:28S 22°53' W 043°13'0 0.0
2018-Feb-13 10:58S 22°53' W 043°13'0 0.0
2018-Feb-13 10:28S 22°53' W 043°13'0 0.0
2018-Feb-13 09:58S 22°53' W 043°13'0 0.1
2018-Feb-13 09:30S 22°53' W 043°12'1 2.6
2018-Feb-13 09:00S 22°53' W 043°11'4 8.3
2018-Feb-13 08:30S 22°56' W 043°08'4 8.2
2018-Feb-13 08:00S 23°00' W 043°06'611.6
2018-Feb-13 07:30S 23°02' W 043°00'612.5
2018-Feb-13 07:00S 23°04' W 042°54'714.5
2018-Feb-13 06:30S 23°06' W 042°46'916.6
2018-Feb-13 05:57S 23°06' W 042°36'817.4
2018-Feb-13 05:30S 23°07' W 042°28'917.3
2018-Feb-13 05:00S 23°07' W 042°19'1417.1
2018-Feb-13 04:11S 23°06' W 042°03'717.2
2018-Feb-13 03:46S 23°06' W 041°56'  

Dump ship's entire track history